Time;durP1;ratioP1;P1;durP2;ratioP2;P2;SDS_P1;SDS_P2;PMS_P1;PMS_P2;Temp;Humidity;BMP_temperature;BMP_pressure;BME280_temperature;BME280_humidity;BME280_pressure;Samples;Min_cycle;Max_cycle;Signal;HPM_P1;HPM_P2
2022/10/29 00:01:39;;;;;;;13.23;5.50;;;17.90;99.90;;;;;;4964368;28;20936;-70
2022/10/29 00:04:05;;;;;;;19.10;6.37;;;17.90;99.90;;;;;;4958180;28;20425;-70
2022/10/29 00:06:30;;;;;;;15.17;7.40;;;17.90;99.90;;;;;;4957924;28;20179;-70
2022/10/29 00:08:56;;;;;;;12.00;5.90;;;17.90;99.90;;;;;;4951622;28;20604;-70
2022/10/29 00:11:22;;;;;;;13.87;5.33;;;17.90;99.90;;;;;;4964276;28;21240;-70
2022/10/29 00:13:53;;;;;;;14.67;6.43;;;17.90;99.90;;;;;;4964210;28;20213;-70
2022/10/29 00:16:21;;;;;;;11.70;5.87;;;17.90;99.90;;;;;;4969414;28;20266;-71
2022/10/29 00:18:46;;;;;;;14.00;5.90;;;17.90;99.90;;;;;;4956396;28;20818;-70
2022/10/29 00:21:18;;;;;;;16.90;6.33;;;17.90;99.90;;;;;;4954128;28;20454;-72
2022/10/29 00:23:45;;;;;;;10.63;5.60;;;17.90;99.90;;;;;;4956882;28;20195;-70
2022/10/29 00:26:10;;;;;;;12.50;6.30;;;17.80;99.90;;;;;;4961929;28;20537;-71
2022/10/29 00:28:36;;;;;;;10.60;5.70;;;17.80;99.90;;;;;;4966413;28;20533;-70
2022/10/29 00:31:13;;;;;;;15.53;6.73;;;17.80;99.90;;;;;;4963031;28;20256;-69
2022/10/29 00:33:39;;;;;;;11.93;5.20;;;17.80;99.90;;;;;;4959960;28;20245;-70
2022/10/29 00:36:08;;;;;;;11.80;5.93;;;17.70;99.90;;;;;;4952727;28;20467;-70
2022/10/29 00:38:34;;;;;;;9.70;5.67;;;17.70;99.90;;;;;;4959055;28;20183;-71
2022/10/29 00:41:00;;;;;;;15.70;6.87;;;17.70;99.90;;;;;;4954031;28;20943;-70
2022/10/29 00:43:26;;;;;;;15.50;5.40;;;17.70;99.90;;;;;;4976964;28;20438;-70
2022/10/29 00:46:10;;;;;;;15.57;6.60;;;17.70;99.90;;;;;;4962795;28;20473;-70
2022/10/29 00:48:41;;;;;;;14.70;6.00;;;17.70;99.90;;;;;;4959133;28;20445;-70
2022/10/29 00:51:10;;;;;;;17.17;6.57;;;17.70;99.90;;;;;;4976228;28;20854;-71
2022/10/29 00:53:42;;;;;;;11.30;5.50;;;17.70;99.90;;;;;;4959842;28;20480;-70
2022/10/29 00:56:07;;;;;;;11.60;7.07;;;17.70;99.90;;;;;;4955066;28;21181;-70
2022/10/29 00:58:34;;;;;;;15.13;6.40;;;17.70;99.90;;;;;;4966246;28;20514;-70
2022/10/29 01:01:00;;;;;;;14.93;6.87;;;17.70;99.90;;;;;;4977164;28;20274;-70
2022/10/29 01:03:25;;;;;;;13.07;5.77;;;17.70;99.90;;;;;;4962105;28;20448;-70
2022/10/29 01:05:52;;;;;;;14.07;6.00;;;17.70;99.90;;;;;;4985973;28;20425;-70
2022/10/29 01:08:19;;;;;;;13.90;5.90;;;17.70;99.90;;;;;;4959391;28;20191;-70
2022/10/29 01:10:57;;;;;;;14.43;5.67;;;17.70;99.90;;;;;;4960030;28;20441;-70
2022/10/29 01:13:47;;;;;;;12.43;6.10;;;17.70;99.90;;;;;;4959558;28;20461;-70
2022/10/29 01:16:26;;;;;;;15.13;6.43;;;17.70;99.90;;;;;;4954248;28;20443;-69
2022/10/29 01:19:12;;;;;;;12.00;5.63;;;17.60;99.90;;;;;;4956819;28;20438;-71
2022/10/29 01:22:07;;;;;;;7.20;5.50;;;17.60;99.90;;;;;;4959093;28;20519;-71
2022/10/29 01:25:04;;;;;;;14.10;5.27;;;17.60;99.90;;;;;;4964618;28;20482;-71
2022/10/29 01:28:06;;;;;;;13.30;5.80;;;17.60;99.90;;;;;;4958512;28;20439;-71
2022/10/29 01:31:14;;;;;;;16.90;6.00;;;17.60;99.90;;;;;;4960182;28;20453;-70
2022/10/29 01:34:09;;;;;;;9.47;5.20;;;17.60;99.90;;;;;;4941870;28;20459;-70
2022/10/29 01:36:48;;;;;;;19.80;5.50;;;17.60;99.90;;;;;;4966022;28;20440;-70
2022/10/29 01:39:20;;;;;;;9.37;5.63;;;17.50;99.90;;;;;;4956255;28;20435;-69
2022/10/29 01:42:05;;;;;;;10.70;6.10;;;17.50;99.90;;;;;;4957407;28;20450;-70
2022/10/29 01:44:49;;;;;;;11.70;8.03;;;17.50;99.90;;;;;;4953040;28;20956;-69
2022/10/29 01:47:18;;;;;;;15.93;5.97;;;17.50;99.90;;;;;;4965375;28;20502;-69
2022/10/29 01:49:53;;;;;;;12.67;6.20;;;17.50;99.90;;;;;;4964919;28;20461;-69
2022/10/29 01:52:21;;;;;;;9.50;5.00;;;17.50;99.90;;;;;;4958295;28;20450;-69
2022/10/29 01:54:48;;;;;;;11.50;5.47;;;17.50;99.90;;;;;;4954700;28;20568;-69
2022/10/29 01:57:45;;;;;;;10.07;5.30;;;17.40;99.90;;;;;;4956877;28;20973;-70
2022/10/29 02:00:12;;;;;;;18.70;5.53;;;17.40;99.90;;;;;;5001209;28;20449;-70
2022/10/29 02:02:48;;;;;;;15.13;6.67;;;17.40;99.90;;;;;;4961787;28;20432;-70
2022/10/29 02:05:30;;;;;;;12.07;5.00;;;17.40;99.90;;;;;;4958949;28;20441;-69
2022/10/29 02:08:04;;;;;;;9.70;5.33;;;17.40;99.90;;;;;;4955674;28;20443;-71
2022/10/29 02:10:48;;;;;;;18.47;6.50;;;17.30;99.90;;;;;;4979994;28;20486;-69
2022/10/29 02:13:16;;;;;;;13.00;5.70;;;17.30;99.90;;;;;;4957214;28;20466;-69
2022/10/29 02:15:43;;;;;;;13.10;6.20;;;17.30;99.90;;;;;;4961886;28;20841;-69
2022/10/29 02:18:09;;;;;;;8.10;5.10;;;17.30;99.90;;;;;;4955969;28;20453;-70
2022/10/29 02:20:40;;;;;;;9.20;4.97;;;17.30;99.90;;;;;;4961294;28;20457;-70
2022/10/29 02:23:05;;;;;;;12.70;6.00;;;17.20;99.90;;;;;;4959335;28;20193;-69
2022/10/29 02:25:31;;;;;;;12.77;5.77;;;17.20;99.90;;;;;;4963171;28;21080;-71
2022/10/29 02:27:56;;;;;;;11.07;6.50;;;17.20;99.90;;;;;;4956372;28;20773;-70
2022/10/29 02:30:22;;;;;;;13.10;5.80;;;17.20;99.90;;;;;;4956417;28;20836;-70
2022/10/29 02:32:47;;;;;;;8.77;5.10;;;17.20;99.90;;;;;;4959256;28;20676;-71
2022/10/29 02:35:13;;;;;;;11.70;5.60;;;17.10;99.90;;;;;;4962824;28;20688;-71
2022/10/29 02:37:38;;;;;;;12.43;6.07;;;17.10;99.90;;;;;;4974674;28;20190;-71
2022/10/29 02:40:05;;;;;;;9.70;5.27;;;17.10;99.90;;;;;;4981780;28;20213;-71
2022/10/29 02:42:30;;;;;;;10.03;5.70;;;17.10;99.90;;;;;;4956694;28;20193;-70
2022/10/29 02:44:56;;;;;;;21.13;7.10;;;17.10;99.90;;;;;;4957009;28;20910;-70
2022/10/29 02:47:21;;;;;;;15.97;6.00;;;17.00;99.90;;;;;;4954381;28;20647;-70
2022/10/29 02:49:47;;;;;;;9.70;5.57;;;17.00;99.90;;;;;;4957576;28;20763;-70
2022/10/29 02:52:13;;;;;;;11.10;5.83;;;17.00;99.90;;;;;;4955753;28;20201;-70
2022/10/29 02:54:38;;;;;;;10.10;6.00;;;17.00;99.90;;;;;;4955470;28;20212;-70
2022/10/29 02:57:05;;;;;;;12.37;5.10;;;16.90;99.90;;;;;;4960579;28;20340;-70
2022/10/29 02:59:30;;;;;;;10.10;6.00;;;16.90;99.90;;;;;;4958579;28;20194;-69
2022/10/29 03:01:56;;;;;;;12.27;5.90;;;16.90;99.90;;;;;;4955344;28;20435;-69
2022/10/29 03:04:21;;;;;;;13.53;5.77;;;16.90;99.90;;;;;;4963459;28;20198;-69
2022/10/29 03:06:47;;;;;;;11.90;6.60;;;16.90;99.90;;;;;;4978398;28;20215;-69
2022/10/29 03:09:12;;;;;;;13.57;5.23;;;16.90;99.90;;;;;;4966017;28;20191;-69
2022/10/29 03:11:38;;;;;;;11.67;5.27;;;16.90;99.90;;;;;;4969202;28;20748;-69
2022/10/29 03:14:03;;;;;;;8.73;5.50;;;16.90;99.90;;;;;;4977265;28;20212;-69
2022/10/29 03:16:29;;;;;;;8.90;5.00;;;16.90;99.90;;;;;;4961769;28;20182;-69
2022/10/29 03:18:54;;;;;;;12.20;5.60;;;16.90;99.90;;;;;;4960146;28;20269;-69
2022/10/29 03:21:20;;;;;;;15.73;5.47;;;16.80;99.90;;;;;;4968826;28;20568;-69
2022/10/29 03:23:45;;;;;;;13.67;6.23;;;16.80;99.90;;;;;;4964556;28;20424;-70
2022/10/29 03:26:11;;;;;;;9.23;5.13;;;16.80;99.90;;;;;;4970813;28;21095;-70
2022/10/29 03:28:37;;;;;;;13.93;5.53;;;16.80;99.90;;;;;;4974006;28;20189;-70
2022/10/29 03:31:03;;;;;;;9.40;6.40;;;16.70;99.90;;;;;;4961214;28;20243;-69
2022/10/29 03:33:28;;;;;;;13.33;5.77;;;16.70;99.90;;;;;;4964289;28;20502;-69
2022/10/29 03:35:56;;;;;;;15.40;6.20;;;16.70;99.90;;;;;;4965272;28;20187;-70
2022/10/29 03:38:22;;;;;;;13.03;6.40;;;16.70;99.90;;;;;;4968482;28;20241;-69
2022/10/29 03:40:47;;;;;;;10.37;5.73;;;16.70;99.90;;;;;;4955985;28;20462;-69
2022/10/29 03:43:13;;;;;;;13.27;6.17;;;16.70;99.90;;;;;;4955204;28;20507;-71
2022/10/29 03:45:39;;;;;;;10.50;6.40;;;16.70;99.90;;;;;;4955974;28;20594;-71
2022/10/29 03:48:04;;;;;;;13.70;5.63;;;16.60;99.90;;;;;;4955012;28;20258;-70
2022/10/29 03:50:30;;;;;;;16.00;6.73;;;16.60;99.90;;;;;;4955711;28;20590;-70
2022/10/29 03:52:55;;;;;;;13.87;5.60;;;16.60;99.90;;;;;;4953352;28;20822;-70
2022/10/29 03:55:21;;;;;;;16.20;6.77;;;16.60;99.90;;;;;;4952739;28;20273;-70
2022/10/29 03:57:46;;;;;;;10.10;5.73;;;16.60;99.90;;;;;;4966552;28;20180;-70
2022/10/29 04:00:13;;;;;;;17.50;6.17;;;16.60;99.90;;;;;;4968342;28;20214;-70
2022/10/29 04:02:38;;;;;;;11.23;5.50;;;16.60;99.90;;;;;;4951912;28;20186;-69
2022/10/29 04:05:04;;;;;;;13.20;6.17;;;16.60;99.90;;;;;;4965558;28;20467;-69
2022/10/29 04:07:30;;;;;;;10.77;6.60;;;16.60;99.90;;;;;;4968921;28;20228;-70
2022/10/29 04:09:55;;;;;;;10.50;6.23;;;16.60;99.90;;;;;;4973562;28;20458;-70
2022/10/29 04:12:23;;;;;;;11.17;6.33;;;16.60;99.90;;;;;;4961674;28;20610;-70
2022/10/29 04:14:49;;;;;;;9.60;6.23;;;16.60;99.90;;;;;;4961278;28;20245;-70
2022/10/29 04:17:15;;;;;;;15.37;5.93;;;16.50;99.90;;;;;;4953727;28;20482;-69
2022/10/29 04:19:40;;;;;;;11.53;6.20;;;16.50;99.90;;;;;;4956354;28;20458;-70
2022/10/29 04:22:06;;;;;;;17.40;6.77;;;16.50;99.90;;;;;;4957875;28;20190;-70
2022/10/29 04:24:31;;;;;;;11.13;6.13;;;16.50;99.90;;;;;;4964347;28;20216;-70
2022/10/29 04:26:57;;;;;;;8.60;6.03;;;16.50;99.90;;;;;;4954463;28;20205;-70
2022/10/29 04:29:22;;;;;;;9.40;6.20;;;16.50;99.90;;;;;;4954777;28;20191;-70
2022/10/29 04:31:48;;;;;;;12.53;6.63;;;16.50;99.90;;;;;;4964325;28;20283;-70
2022/10/29 04:34:14;;;;;;;15.53;6.43;;;16.50;99.90;;;;;;4956401;28;20785;-70
2022/10/29 04:36:39;;;;;;;13.13;6.07;;;16.40;99.90;;;;;;4958620;28;20183;-70
2022/10/29 04:39:05;;;;;;;10.10;6.00;;;16.40;99.90;;;;;;4963998;28;20735;-69
2022/10/29 04:41:30;;;;;;;12.07;5.90;;;16.40;99.90;;;;;;4961642;28;20683;-69
2022/10/29 04:43:56;;;;;;;18.63;5.90;;;16.40;99.90;;;;;;4961587;28;20240;-69
2022/10/29 04:46:22;;;;;;;11.90;5.47;;;16.40;99.90;;;;;;4960328;28;20194;-70
2022/10/29 04:48:47;;;;;;;8.60;6.30;;;16.30;99.90;;;;;;4964525;28;20265;-70
2022/10/29 04:51:21;;;;;;;10.93;5.77;;;16.30;99.90;;;;;;4958618;28;20219;-69
2022/10/29 04:53:47;;;;;;;11.93;5.40;;;16.30;99.90;;;;;;4966187;28;20260;-68
2022/10/29 04:56:12;;;;;;;14.93;5.90;;;16.30;99.90;;;;;;4972753;28;20446;-69
2022/10/29 04:58:38;;;;;;;10.43;5.50;;;16.30;99.90;;;;;;4956892;28;20686;-69
2022/10/29 05:01:04;;;;;;;12.40;6.13;;;16.30;99.90;;;;;;4965330;28;20206;-68
2022/10/29 05:03:30;;;;;;;16.93;6.60;;;16.30;99.90;;;;;;4955606;28;20183;-70
2022/10/29 05:05:56;;;;;;;13.10;6.07;;;16.20;99.90;;;;;;4959755;28;20186;-69
2022/10/29 05:08:22;;;;;;;12.30;4.93;;;16.20;99.90;;;;;;4970539;28;20446;-68
2022/10/29 05:10:50;;;;;;;11.40;5.77;;;16.20;99.90;;;;;;4991244;28;20236;-70
2022/10/29 05:13:15;;;;;;;13.23;6.33;;;16.20;99.90;;;;;;4955003;28;20234;-68
2022/10/29 05:15:41;;;;;;;14.17;5.80;;;16.20;99.90;;;;;;4966487;28;20446;-71
2022/10/29 05:18:07;;;;;;;9.73;5.93;;;16.10;99.90;;;;;;4964874;28;20187;-69
2022/10/29 05:20:34;;;;;;;14.10;5.47;;;16.10;99.90;;;;;;4966333;28;20289;-69
2022/10/29 05:23:04;;;;;;;11.03;5.20;;;16.10;99.90;;;;;;4963082;28;20473;-70
2022/10/29 05:25:31;;;;;;;12.17;6.43;;;16.10;99.90;;;;;;4976832;28;20441;-70
2022/10/29 05:28:04;;;;;;;15.93;6.80;;;16.10;99.90;;;;;;4985345;28;20437;-69
2022/10/29 05:30:30;;;;;;;10.30;5.47;;;16.10;99.90;;;;;;4960080;28;21018;-70
2022/10/29 05:32:56;;;;;;;12.07;5.63;;;16.00;99.90;;;;;;4952895;28;20477;-70
2022/10/29 05:35:22;;;;;;;17.73;6.80;;;16.00;99.90;;;;;;4958275;28;20580;-70
2022/10/29 05:37:54;;;;;;;12.37;5.77;;;16.00;99.90;;;;;;4971488;28;20191;-70
2022/10/29 05:40:21;;;;;;;9.70;5.40;;;16.00;99.90;;;;;;4968241;28;20203;-69
2022/10/29 05:42:47;;;;;;;9.60;4.80;;;16.00;99.90;;;;;;4980736;28;20410;-70
2022/10/29 05:45:12;;;;;;;11.80;7.70;;;16.00;99.90;;;;;;4979668;28;20424;-70
2022/10/29 05:47:38;;;;;;;12.90;7.00;;;16.00;99.90;;;;;;4957715;28;20207;-69
2022/10/29 05:50:04;;;;;;;9.83;5.50;;;16.00;99.90;;;;;;4965387;28;20591;-69
2022/10/29 05:52:29;;;;;;;13.03;6.60;;;16.00;99.90;;;;;;4971899;28;20848;-69
2022/10/29 05:54:55;;;;;;;11.00;6.67;;;16.00;99.90;;;;;;4967739;28;20977;-69
2022/10/29 05:57:21;;;;;;;18.37;6.33;;;16.00;99.90;;;;;;4967587;28;20265;-69
2022/10/29 05:59:46;;;;;;;13.70;7.67;;;16.00;99.90;;;;;;4964629;28;20211;-69
2022/10/29 06:02:12;;;;;;;11.80;6.60;;;15.90;99.90;;;;;;4968298;28;20232;-69
2022/10/29 06:04:37;;;;;;;13.77;6.77;;;15.90;99.90;;;;;;4979903;28;20183;-69
2022/10/29 06:07:03;;;;;;;11.93;6.30;;;15.90;99.90;;;;;;4962065;28;20202;-69
2022/10/29 06:09:29;;;;;;;8.10;5.93;;;15.90;99.90;;;;;;4971108;28;20251;-69
2022/10/29 06:11:54;;;;;;;8.50;5.90;;;15.90;99.90;;;;;;4957677;28;20513;-69
2022/10/29 06:14:20;;;;;;;14.03;5.33;;;15.90;99.90;;;;;;4959789;28;20229;-69
2022/10/29 06:16:46;;;;;;;11.20;5.50;;;15.90;99.90;;;;;;4960924;28;20235;-70
2022/10/29 06:19:11;;;;;;;17.93;7.10;;;15.90;99.90;;;;;;4960764;28;20192;-69
2022/10/29 06:21:37;;;;;;;16.10;6.90;;;15.80;99.90;;;;;;4967208;28;20206;-70
2022/10/29 06:24:03;;;;;;;11.50;6.00;;;15.80;99.90;;;;;;4968308;28;20186;-69
2022/10/29 06:26:28;;;;;;;9.27;5.30;;;15.80;99.90;;;;;;4970543;28;20193;-69
2022/10/29 06:28:54;;;;;;;9.50;5.60;;;15.80;99.90;;;;;;4971049;28;20658;-69
2022/10/29 06:31:19;;;;;;;14.47;6.20;;;15.80;99.90;;;;;;4961325;28;20209;-69
2022/10/29 06:33:45;;;;;;;16.13;7.07;;;15.80;99.90;;;;;;4968545;28;20263;-70
2022/10/29 06:36:10;;;;;;;16.93;6.33;;;15.80;99.90;;;;;;4965260;28;20186;-69
2022/10/29 06:38:36;;;;;;;14.83;5.40;;;15.80;99.90;;;;;;4966024;28;20190;-69
2022/10/29 06:41:01;;;;;;;10.70;6.30;;;15.80;99.90;;;;;;4961837;28;20213;-69
2022/10/29 06:43:27;;;;;;;8.57;5.87;;;15.80;99.90;;;;;;4966844;28;20284;-69
2022/10/29 06:45:53;;;;;;;15.60;6.60;;;15.80;99.90;;;;;;4961063;28;20183;-68
2022/10/29 06:48:18;;;;;;;6.97;5.30;;;15.80;99.90;;;;;;4979797;28;20715;-68
2022/10/29 06:50:44;;;;;;;13.33;6.60;;;15.80;99.90;;;;;;4965993;28;20233;-69
2022/10/29 06:53:12;;;;;;;16.00;6.70;;;15.80;99.90;;;;;;4964980;28;20207;-69
2022/10/29 06:55:38;;;;;;;19.90;7.60;;;15.70;99.90;;;;;;4961941;28;20285;-69
2022/10/29 06:58:09;;;;;;;10.00;5.70;;;15.80;99.90;;;;;;4963484;28;21166;-69
2022/10/29 07:00:35;;;;;;;15.67;6.50;;;15.80;99.90;;;;;;4970404;28;22137;-69
2022/10/29 07:03:02;;;;;;;12.60;5.60;;;15.80;99.90;;;;;;4969507;28;20448;-69
2022/10/29 07:05:28;;;;;;;7.87;5.83;;;15.90;99.90;;;;;;4971623;28;20244;-70
2022/10/29 07:07:55;;;;;;;8.00;5.23;;;15.90;99.90;;;;;;4989957;28;20441;-69
2022/10/29 07:10:21;;;;;;;13.57;6.23;;;15.90;99.90;;;;;;4969777;28;20254;-69
2022/10/29 07:12:52;;;;;;;19.57;7.13;;;16.00;99.90;;;;;;4959952;28;20430;-69
2022/10/29 07:15:18;;;;;;;10.40;6.27;;;16.00;99.90;;;;;;4959413;28;20834;-68
2022/10/29 07:18:13;;;;;;;10.17;7.03;;;16.10;99.90;;;;;;4963473;28;20474;-70
2022/10/29 07:20:41;;;;;;;11.83;6.03;;;16.10;99.90;;;;;;4976746;28;20949;-69
2022/10/29 07:23:07;;;;;;;13.77;7.23;;;16.20;99.90;;;;;;4957175;28;20429;-69
2022/10/29 07:25:35;;;;;;;15.30;6.07;;;16.20;99.90;;;;;;4963412;28;20786;-70
2022/10/29 07:28:10;;;;;;;15.60;8.57;;;16.30;99.90;;;;;;4962030;28;20541;-69
2022/10/29 07:30:35;;;;;;;15.13;8.00;;;16.30;99.90;;;;;;4966924;28;20723;-69
2022/10/29 07:33:13;;;;;;;18.57;7.63;;;16.40;99.90;;;;;;4959347;28;20469;-69
2022/10/29 07:35:42;;;;;;;12.10;6.80;;;16.40;99.90;;;;;;4962945;28;20186;-69
2022/10/29 07:38:09;;;;;;;15.53;6.93;;;16.40;99.90;;;;;;4961539;28;20423;-69
2022/10/29 07:40:35;;;;;;;11.13;6.10;;;16.50;99.90;;;;;;4959875;28;20438;-68
2022/10/29 07:43:01;;;;;;;13.47;6.47;;;16.50;99.90;;;;;;4957725;28;20462;-69
2022/10/29 07:45:28;;;;;;;11.33;6.73;;;16.50;99.90;;;;;;4962589;28;20183;-70
2022/10/29 07:48:01;;;;;;;15.90;6.63;;;16.60;99.90;;;;;;4964612;28;20495;-70
2022/10/29 07:50:28;;;;;;;11.57;5.40;;;16.50;99.90;;;;;;4983719;28;20497;-69
2022/10/29 07:52:54;;;;;;;11.80;5.53;;;16.60;99.90;;;;;;4971864;28;20448;-70
2022/10/29 07:55:19;;;;;;;9.40;6.00;;;16.60;99.90;;;;;;4976658;28;20478;-70
2022/10/29 07:57:45;;;;;;;11.07;5.63;;;16.60;99.90;;;;;;4965011;28;20180;-68
2022/10/29 08:00:11;;;;;;;12.87;5.40;;;16.60;99.90;;;;;;4967112;28;20231;-70
2022/10/29 08:02:37;;;;;;;14.17;6.03;;;16.60;99.90;;;;;;4958988;28;20250;-70
2022/10/29 08:05:04;;;;;;;12.60;5.87;;;16.60;99.90;;;;;;4965570;28;20418;-69
2022/10/29 08:07:29;;;;;;;11.33;6.20;;;16.70;99.90;;;;;;4960285;28;20797;-69
2022/10/29 08:09:58;;;;;;;13.80;5.50;;;16.70;99.90;;;;;;4966051;28;20458;-70
2022/10/29 08:12:23;;;;;;;11.07;6.10;;;16.80;99.90;;;;;;4971912;28;20343;-68
2022/10/29 08:14:49;;;;;;;14.10;5.67;;;16.90;99.90;;;;;;4964952;28;20522;-70
2022/10/29 08:17:14;;;;;;;12.87;5.73;;;17.00;99.90;;;;;;4961736;28;20182;-70
2022/10/29 08:19:40;;;;;;;12.00;7.77;;;17.00;99.90;;;;;;4961130;28;20213;-71
2022/10/29 08:22:08;;;;;;;10.43;6.23;;;17.10;99.90;;;;;;4966932;28;20214;-70
2022/10/29 08:24:34;;;;;;;12.83;6.07;;;17.10;99.90;;;;;;4968451;28;20195;-69
2022/10/29 08:26:59;;;;;;;15.63;8.00;;;17.20;99.90;;;;;;4974150;28;20922;-69
2022/10/29 08:29:25;;;;;;;16.37;6.10;;;17.20;99.90;;;;;;4956050;28;20183;-68
2022/10/29 08:31:51;;;;;;;15.27;6.27;;;17.30;99.90;;;;;;4958115;28;20191;-72
2022/10/29 08:34:16;;;;;;;11.77;5.70;;;17.30;99.90;;;;;;4960588;28;20472;-69
2022/10/29 08:36:42;;;;;;;13.53;6.83;;;17.40;99.90;;;;;;4985095;28;20672;-69
2022/10/29 08:39:07;;;;;;;12.67;6.70;;;17.50;99.90;;;;;;4959831;28;20649;-69
2022/10/29 08:42:09;;;;;;;12.17;5.90;;;17.50;99.90;;;;;;4965142;28;20469;-70
2022/10/29 08:44:58;;;;;;;15.17;6.03;;;17.60;99.90;;;;;;4985302;28;20200;-71
2022/10/29 08:47:24;;;;;;;12.90;7.70;;;17.70;99.90;;;;;;4986035;28;20507;-69
2022/10/29 08:50:04;;;;;;;15.37;5.83;;;17.80;99.90;;;;;;4956250;28;20450;-70
2022/10/29 08:52:41;;;;;;;12.30;6.60;;;17.80;99.90;;;;;;4965280;28;20452;-68
2022/10/29 08:55:32;;;;;;;11.83;6.80;;;17.90;99.90;;;;;;4968485;28;20986;-70
2022/10/29 08:58:23;;;;;;;9.57;6.20;;;18.00;99.90;;;;;;4963196;28;20422;-69
2022/10/29 09:00:53;;;;;;;10.33;6.17;;;18.00;99.90;;;;;;4956983;28;20449;-69
2022/10/29 09:03:18;;;;;;;16.00;7.23;;;18.00;99.90;;;;;;4949760;28;20473;-69
2022/10/29 09:05:56;;;;;;;13.20;6.47;;;18.10;99.90;;;;;;4958845;28;20449;-71
2022/10/29 09:08:24;;;;;;;13.50;6.60;;;18.20;99.90;;;;;;4955529;28;20214;-69
2022/10/29 09:11:03;;;;;;;11.53;6.10;;;18.20;99.90;;;;;;4971704;28;20596;-69
2022/10/29 09:13:44;;;;;;;9.53;5.80;;;18.30;99.90;;;;;;4969205;28;20756;-69
2022/10/29 09:16:27;;;;;;;12.63;7.20;;;18.30;99.90;;;;;;4959497;28;20418;-70
2022/10/29 09:19:02;;;;;;;9.37;6.00;;;18.40;99.90;;;;;;4960405;28;20823;-69
2022/10/29 09:21:53;;;;;;;16.50;7.27;;;18.50;99.90;;;;;;4967864;28;20473;-69
2022/10/29 09:24:37;;;;;;;12.27;6.30;;;18.50;99.90;;;;;;4961213;28;20443;-71
2022/10/29 09:27:14;;;;;;;16.27;6.37;;;18.50;99.90;;;;;;4957531;28;20502;-70
2022/10/29 09:29:53;;;;;;;15.30;6.13;;;18.60;99.90;;;;;;4968900;28;20445;-70
2022/10/29 09:32:27;;;;;;;17.00;7.00;;;18.60;99.90;;;;;;4954508;28;20423;-68
2022/10/29 09:35:03;;;;;;;10.27;6.60;;;18.80;99.90;;;;;;4954980;28;20481;-69
2022/10/29 09:37:54;;;;;;;11.77;6.50;;;18.70;99.90;;;;;;4958692;28;20947;-68
2022/10/29 09:40:39;;;;;;;15.77;6.80;;;18.80;99.90;;;;;;4957086;28;20456;-70
2022/10/29 09:43:27;;;;;;;17.03;9.33;;;18.90;99.90;;;;;;4953518;28;20502;-70
2022/10/29 09:46:27;;;;;;;15.00;7.27;;;18.90;99.90;;;;;;4968907;28;20442;-70
2022/10/29 09:49:08;;;;;;;11.73;6.50;;;19.10;99.90;;;;;;4970734;28;20618;-70
2022/10/29 09:52:16;;;;;;;13.03;6.20;;;19.10;99.90;;;;;;4965654;28;20450;-69
2022/10/29 09:54:42;;;;;;;10.40;5.67;;;19.10;99.90;;;;;;5010651;28;20486;-70
2022/10/29 09:57:23;;;;;;;10.73;5.97;;;19.10;99.90;;;;;;4971356;28;20439;-70
2022/10/29 09:59:54;;;;;;;11.50;6.10;;;19.20;99.90;;;;;;4971341;28;20202;-69
2022/10/29 10:02:19;;;;;;;18.67;7.60;;;19.40;99.90;;;;;;4968667;28;20499;-70
2022/10/29 10:04:48;;;;;;;13.60;6.70;;;19.50;99.90;;;;;;4972856;28;20449;-69
2022/10/29 10:07:19;;;;;;;13.70;6.60;;;19.40;99.90;;;;;;4962311;28;20676;-69
2022/10/29 10:09:53;;;;;;;15.50;10.63;;;19.50;99.90;;;;;;4966763;28;20464;-71
2022/10/29 10:12:22;;;;;;;12.77;6.50;;;19.60;99.90;;;;;;4954716;28;20866;-69
2022/10/29 10:15:00;;;;;;;11.07;5.97;;;19.70;99.90;;;;;;4960667;28;20516;-69
2022/10/29 10:17:25;;;;;;;9.10;5.20;;;19.80;99.90;;;;;;4973682;28;20866;-70
2022/10/29 10:19:51;;;;;;;14.27;5.90;;;19.80;99.90;;;;;;4966114;28;20446;-69
2022/10/29 10:22:19;;;;;;;8.03;4.50;;;19.80;99.90;;;;;;4975663;28;20533;-70
2022/10/29 10:24:45;;;;;;;7.17;5.50;;;19.80;99.90;;;;;;4981946;28;20179;-70
2022/10/29 10:27:17;;;;;;;10.70;5.70;;;19.90;99.90;;;;;;4991356;28;20787;-69
2022/10/29 10:29:43;;;;;;;8.87;5.50;;;19.90;99.90;;;;;;4981116;28;20446;-69
2022/10/29 10:32:13;;;;;;;11.40;5.03;;;20.10;99.90;;;;;;4970873;28;20426;-69
2022/10/29 10:34:39;;;;;;;10.37;5.63;;;20.10;99.90;;;;;;4958120;28;20813;-68
2022/10/29 10:37:17;;;;;;;25.13;5.80;;;20.10;99.90;;;;;;4968677;28;20781;-68
2022/10/29 10:39:44;;;;;;;12.03;5.40;;;20.20;99.90;;;;;;4962322;28;20194;-68
2022/10/29 10:42:31;;;;;;;14.57;5.40;;;20.30;99.90;;;;;;4968371;28;20418;-69
2022/10/29 10:45:13;;;;;;;11.63;5.60;;;20.40;99.90;;;;;;4967000;28;20433;-69
2022/10/29 10:47:46;;;;;;;17.20;5.60;;;20.50;99.90;;;;;;4975764;28;20487;-68
2022/10/29 10:50:21;;;;;;;10.50;5.57;;;20.60;99.90;;;;;;4974332;28;20476;-67
2022/10/29 10:52:48;;;;;;;9.43;4.80;;;20.70;99.90;;;;;;4988358;28;20978;-69
2022/10/29 10:55:21;;;;;;;15.57;5.70;;;20.80;99.90;;;;;;4966684;28;20771;-69
2022/10/29 10:58:15;;;;;;;11.40;5.50;;;20.80;99.90;;;;;;4970236;28;20434;-68
2022/10/29 11:00:47;;;;;;;7.60;5.47;;;20.90;99.90;;;;;;4963290;28;20920;-68
2022/10/29 11:03:33;;;;;;;9.03;4.60;;;21.00;99.90;;;;;;4965986;28;20517;-69
2022/10/29 11:06:14;;;;;;;7.20;5.17;;;21.00;99.90;;;;;;4977773;28;20520;-68
2022/10/29 11:08:48;;;;;;;9.10;4.87;;;21.10;99.90;;;;;;4987264;28;20450;-67
2022/10/29 11:11:24;;;;;;;11.60;5.13;;;21.10;99.90;;;;;;4960282;28;20463;-68
2022/10/29 11:13:50;;;;;;;11.37;5.13;;;21.10;99.90;;;;;;4970318;28;20571;-69
2022/10/29 11:16:27;;;;;;;14.57;5.13;;;21.20;99.90;;;;;;4969433;28;20438;-69
2022/10/29 11:19:15;;;;;;;9.03;4.47;;;21.20;99.90;;;;;;4959871;28;21360;-68
2022/10/29 11:22:22;;;;;;;9.00;5.30;;;21.30;99.90;;;;;;4980672;28;20848;-69
2022/10/29 11:25:01;;;;;;;14.53;5.23;;;21.30;99.90;;;;;;4963913;28;20453;-68
2022/10/29 11:27:46;;;;;;;8.23;4.50;;;21.40;99.90;;;;;;4982102;28;20522;-69
2022/10/29 11:30:14;;;;;;;9.43;5.70;;;21.40;99.90;;;;;;4968056;28;20460;-69
2022/10/29 11:32:49;;;;;;;13.53;5.53;;;21.60;99.90;;;;;;4957521;28;20450;-68
2022/10/29 11:35:37;;;;;;;14.03;6.10;;;21.70;99.90;;;;;;4981165;28;20469;-68
2022/10/29 11:38:16;;;;;;;13.00;6.03;;;21.80;99.90;;;;;;4967401;28;20438;-68
2022/10/29 11:40:50;;;;;;;11.90;4.90;;;22.00;99.90;;;;;;4976705;28;20542;-68
2022/10/29 11:43:19;;;;;;;20.20;6.40;;;22.30;99.90;;;;;;4968307;28;20434;-71
2022/10/29 11:46:16;;;;;;;11.00;5.07;;;22.70;99.90;;;;;;4974194;28;21563;-70
2022/10/29 11:49:29;;;;;;;9.87;4.90;;;23.30;99.90;;;;;;4975301;28;20449;-70
2022/10/29 11:52:03;;;;;;;10.40;4.40;;;23.80;99.90;;;;;;4992841;28;20502;-70
2022/10/29 11:54:47;;;;;;;9.53;5.40;;;24.10;99.90;;;;;;4995030;28;20831;-68
2022/10/29 11:57:40;;;;;;;15.90;5.87;;;24.50;99.90;;;;;;4976839;28;20457;-68
2022/10/29 12:00:20;;;;;;;11.27;5.10;;;24.80;99.90;;;;;;4969626;28;21243;-68
2022/10/29 12:03:19;;;;;;;13.73;5.23;;;25.00;99.90;;;;;;4966514;28;20429;-70
2022/10/29 12:06:11;;;;;;;12.30;4.37;;;25.40;99.90;;;;;;4982343;28;20896;-68
2022/10/29 12:08:53;;;;;;;16.70;5.10;;;25.80;99.90;;;;;;4985729;28;20438;-66
2022/10/29 12:11:49;;;;;;;9.23;4.60;;;26.10;99.90;;;;;;4962545;28;20465;-68
2022/10/29 12:14:17;;;;;;;11.30;4.90;;;26.20;99.90;;;;;;4955381;28;20475;-70
2022/10/29 12:17:04;;;;;;;15.13;5.30;;;26.50;99.90;;;;;;4973069;28;22032;-70
2022/10/29 12:19:41;;;;;;;9.10;4.70;;;26.60;99.90;;;;;;4958826;28;20619;-70
2022/10/29 12:22:43;;;;;;;12.40;6.17;;;26.70;99.90;;;;;;4961256;28;20542;-71
2022/10/29 12:25:39;;;;;;;10.37;5.57;;;26.80;99.90;;;;;;4960049;28;20433;-71
2022/10/29 12:28:18;;;;;;;14.90;5.00;;;26.80;99.90;;;;;;4969546;28;20430;-70
2022/10/29 12:30:56;;;;;;;9.30;5.90;;;26.90;99.90;;;;;;4956291;28;20457;-71
2022/10/29 12:33:35;;;;;;;9.53;4.77;;;27.00;99.90;;;;;;4972453;28;20440;-69
2022/10/29 12:36:18;;;;;;;7.80;4.93;;;27.00;99.90;;;;;;4964862;28;20429;-71
2022/10/29 12:38:51;;;;;;;9.37;5.37;;;26.90;99.90;;;;;;4971030;28;20437;-72
2022/10/29 12:41:32;;;;;;;14.53;4.97;;;26.90;99.90;;;;;;4960028;28;20842;-72
2022/10/29 12:44:09;;;;;;;14.13;5.53;;;26.90;99.90;;;;;;4969750;28;20441;-70
2022/10/29 12:46:41;;;;;;;9.83;5.70;;;26.90;99.90;;;;;;4970193;28;20450;-69
2022/10/29 12:49:17;;;;;;;8.70;5.07;;;26.90;99.90;;;;;;4964132;28;20462;-68
2022/10/29 12:52:09;;;;;;;11.23;5.80;;;27.00;99.90;;;;;;4964515;28;20587;-69
2022/10/29 12:54:41;;;;;;;16.57;6.83;;;27.10;99.90;;;;;;4960227;28;20892;-68
2022/10/29 12:57:12;;;;;;;10.30;5.27;;;27.30;99.90;;;;;;4957002;28;20512;-69
2022/10/29 12:59:40;;;;;;;8.40;5.27;;;27.40;99.90;;;;;;4967065;28;20422;-68
2022/10/29 13:02:34;;;;;;;8.57;5.30;;;27.60;99.90;;;;;;4955914;28;20799;-71